Time,TemperatureF,DewpointF,PressureIn,WindDirection,WindDirectionDegrees,WindSpeedMPH,WindSpeedGustMPH,Humidity,HourlyPrecipIn,Conditions,Clouds,dailyrainin,SoftwareType,DateUTC
2013-01-03 00:05:00,47.3,47.0,30.15,North,7,0.0,10.0,99,0.00,CLR,,0.00,WeatherDisplay:10.37,2013-01-03 05:05:00,
2013-01-03 00:10:00,47.3,47.0,30.15,NE,40,1.0,4.0,99,0.00,CLR,,0.00,WeatherDisplay:10.37,2013-01-03 05:10:00,
2013-01-03 00:15:00,47.1,46.9,30.15,WNW,298,1.0,4.0,99,0.00,CLR,,0.00,WeatherDisplay:10.37,2013-01-03 05:15:00,
2013-01-03 00:20:00,47.1,46.9,30.15,NW,318,1.0,5.0,99,0.00,CLR,,0.00,WeatherDisplay:10.37,2013-01-03 05:20:00,
2013-01-03 00:25:00,47.1,46.9,30.15,NNW,327,2.0,8.0,99,0.00,CLR,,0.00,WeatherDisplay:10.37,2013-01-03 05:25:00,
2013-01-03 00:30:00,46.9,46.7,30.15,NNW,327,1.0,2.0,99,0.00,CLR,,0.00,WeatherDisplay:10.37,2013-01-03 05:30:00,
2013-01-03 00:35:00,46.9,46.7,30.15,NW,326,1.0,4.0,99,0.00,CLR,,0.00,WeatherDisplay:10.37,2013-01-03 05:35:00,
2013-01-03 00:40:00,46.8,46.5,30.15,North,354,1.0,4.0,99,0.00,CLR,,0.00,WeatherDisplay:10.37,2013-01-03 05:40:00,
2013-01-03 00:45:00,46.8,46.5,30.14,North,359,1.0,4.0,99,0.00,CLR,,0.00,WeatherDisplay:10.37,2013-01-03 05:45:00,
2013-01-03 00:50:00,46.8,46.5,30.14,North,7,1.0,3.0,99,0.00,CLR,,0.00,WeatherDisplay:10.37,2013-01-03 05:50:00,
2013-01-03 00:55:00,46.8,46.5,30.15,NW,319,1.0,4.0,99,0.00,CLR,,0.00,WeatherDisplay:10.37,2013-01-03 05:55:00,
2013-01-03 01:00:00,46.6,46.3,30.14,NNW,333,1.0,4.0,99,0.00,CLR,,0.00,WeatherDisplay:10.37,2013-01-03 06:00:00,
2013-01-03 01:05:00,46.6,46.3,30.15,NNW,341,0.0,3.0,99,0.00,CLR,,0.00,WeatherDisplay:10.37,2013-01-03 06:05:00,
2013-01-03 01:10:00,46.4,46.1,30.14,North,1,1.0,3.0,99,0.00,CLR,,0.00,WeatherDisplay:10.37,2013-01-03 06:10:00,
2013-01-03 01:15:00,46.4,46.1,30.14,North,5,1.0,6.0,99,0.00,CLR,,0.00,WeatherDisplay:10.37,2013-01-03 06:15:00,
2013-01-03 01:20:00,46.4,46.1,30.13,NNW,331,1.0,6.0,99,0.00,CLR,,0.00,WeatherDisplay:10.37,2013-01-03 06:20:00,
2013-01-03 01:25:00,46.2,46.0,30.13,NNW,344,1.0,3.0,99,0.00,CLR,,0.00,WeatherDisplay:10.37,2013-01-03 06:25:00,
2013-01-03 01:30:00,46.0,45.8,30.12,North,355,0.0,4.0,99,0.00,CLR,,0.00,WeatherDisplay:10.37,2013-01-03 06:30:00,
2013-01-03 01:35:00,45.9,45.6,30.12,North,355,1.0,4.0,99,0.00,CLR,,0.00,WeatherDisplay:10.37,2013-01-03 06:35:00,
2013-01-03 01:40:00,45.9,45.6,30.12,NW,320,1.0,3.0,99,0.00,CLR,,0.00,WeatherDisplay:10.37,2013-01-03 06:40:00,
2013-01-03 01:45:00,45.7,45.4,30.12,NW,315,0.0,2.0,99,0.00,CLR,,0.00,WeatherDisplay:10.37,2013-01-03 06:45:00,
2013-01-03 01:50:00,45.7,45.4,30.12,NW,326,1.0,3.0,99,0.00,CLR,,0.00,WeatherDisplay:10.37,2013-01-03 06:50:00,
2013-01-03 01:55:00,45.8,45.6,30.12,NW,326,1.0,3.0,99,0.00,CLR,,0.00,WeatherDisplay:10.37,2013-01-03 06:55:00,
2013-01-03 02:00:00,45.7,45.5,30.13,NNW,335,1.0,3.0,99,0.00,CLR,,0.00,WeatherDisplay:10.37,2013-01-03 07:00:00,
2013-01-03 02:05:00,45.5,45.2,30.13,NNW,334,1.0,3.0,99,0.00,CLR,,0.00,WeatherDisplay:10.37,2013-01-03 07:05:00,
2013-01-03 02:10:00,45.5,45.2,30.12,North,352,0.0,3.0,99,0.00,CLR,,0.00,WeatherDisplay:10.37,2013-01-03 07:10:00,
2013-01-03 02:15:00,45.3,45.1,30.13,North,359,1.0,4.0,99,0.00,CLR,,0.00,WeatherDisplay:10.37,2013-01-03 07:15:00,
2013-01-03 02:20:00,45.3,45.1,30.12,North,8,1.0,3.0,99,0.00,CLR,,0.00,WeatherDisplay:10.37,2013-01-03 07:20:00,
2013-01-03 02:25:00,45.2,45.0,30.13,North,352,1.0,3.0,99,0.00,CLR,,0.00,WeatherDisplay:10.37,2013-01-03 07:25:00,
2013-01-03 02:30:00,45.1,44.9,30.13,NNW,334,1.0,4.0,99,0.00,CLR,,0.00,WeatherDisplay:10.37,2013-01-03 07:30:00,
2013-01-03 02:35:00,45.1,44.9,30.13,NNW,337,1.0,3.0,99,0.00,CLR,,0.00,WeatherDisplay:10.37,2013-01-03 07:35:00,
2013-01-03 02:40:00,45.0,44.7,30.13,North,4,0.0,2.0,99,0.00,CLR,,0.00,WeatherDisplay:10.37,2013-01-03 07:40:00,
2013-01-03 02:45:00,45.0,44.7,30.14,NNW,345,1.0,3.0,99,0.00,CLR,,0.00,WeatherDisplay:10.37,2013-01-03 07:45:00,
2013-01-03 02:50:00,45.0,44.7,30.13,North,352,1.0,3.0,99,0.00,CLR,,0.00,WeatherDisplay:10.37,2013-01-03 07:50:00,
2013-01-03 02:55:00,44.8,44.5,30.13,NNW,343,1.0,6.0,99,0.00,CLR,,0.00,WeatherDisplay:10.37,2013-01-03 07:55:00,
2013-01-03 03:00:00,44.8,44.5,30.13,NW,323,1.0,2.0,99,0.00,CLR,,0.00,WeatherDisplay:10.37,2013-01-03 08:00:00,
2013-01-03 03:05:00,44.8,44.5,30.13,NW,323,1.0,2.0,99,0.00,CLR,,0.00,WeatherDisplay:10.37,2013-01-03 08:05:00,
2013-01-03 03:10:00,44.6,44.3,30.13,NW,315,0.0,2.0,99,0.00,CLR,,0.00,WeatherDisplay:10.37,2013-01-03 08:10:00,
2013-01-03 03:15:00,44.7,44.5,30.13,NW,311,0.0,3.0,99,0.00,CLR,,0.00,WeatherDisplay:10.37,2013-01-03 08:15:00,
2013-01-03 03:20:00,44.6,44.3,30.13,NNW,334,1.0,3.0,99,0.00,CLR,,0.00,WeatherDisplay:10.37,2013-01-03 08:20:00,
2013-01-03 03:25:00,44.6,44.3,30.12,NNW,329,0.0,3.0,99,0.00,CLR,,0.00,WeatherDisplay:10.37,2013-01-03 08:25:00,
2013-01-03 03:30:00,44.6,44.3,30.13,WNW,282,1.0,3.0,99,0.00,CLR,,0.00,WeatherDisplay:10.37,2013-01-03 08:30:00,
2013-01-03 03:35:00,44.6,44.3,30.12,SE,144,0.0,2.0,99,0.00,CLR,,0.00,WeatherDisplay:10.37,2013-01-03 08:35:00,
2013-01-03 03:45:00,44.4,44.2,30.14,NNW,337,0.0,5.0,99,0.00,CLR,,0.00,WeatherDisplay:10.37,2013-01-03 08:45:00,
2013-01-03 03:55:00,44.4,44.2,30.14,NNW,340,1.0,3.0,99,0.00,CLR,,0.00,WeatherDisplay:10.37,2013-01-03 08:55:00,
2013-01-03 04:00:00,44.4,44.2,30.15,North,349,1.0,3.0,99,0.00,CLR,,0.00,WeatherDisplay:10.37,2013-01-03 09:00:00,
2013-01-03 04:05:00,44.4,44.2,30.15,North,8,1.0,2.0,99,0.00,CLR,,0.00,WeatherDisplay:10.37,2013-01-03 09:05:00,
2013-01-03 04:10:00,44.4,44.2,30.14,North,8,0.0,2.0,99,0.00,CLR,,0.00,WeatherDisplay:10.37,2013-01-03 09:10:00,
2013-01-03 04:15:00,44.4,44.2,30.15,North,356,0.0,2.0,99,0.00,CLR,,0.00,WeatherDisplay:10.37,2013-01-03 09:15:00,
2013-01-03 04:20:00,44.4,44.2,30.14,NW,324,0.0,2.0,99,0.00,CLR,,0.00,WeatherDisplay:10.37,2013-01-03 09:20:00,
2013-01-03 04:25:00,44.4,44.2,30.14,NW,316,0.0,2.0,99,0.00,CLR,,0.00,WeatherDisplay:10.37,2013-01-03 09:25:00,
2013-01-03 04:35:00,44.4,44.2,30.13,NNW,344,1.0,4.0,99,0.00,CLR,,0.00,WeatherDisplay:10.37,2013-01-03 09:35:00,
2013-01-03 04:45:00,44.4,44.2,30.14,NNW,327,1.0,2.0,99,0.00,CLR,,0.00,WeatherDisplay:10.37,2013-01-03 09:45:00,
2013-01-03 04:50:00,44.2,44.0,30.14,North,353,1.0,3.0,99,0.00,CLR,,0.00,WeatherDisplay:10.37,2013-01-03 09:50:00,
2013-01-03 04:55:00,44.2,44.0,30.14,NE,37,0.0,2.0,99,0.00,CLR,,0.00,WeatherDisplay:10.37,2013-01-03 09:55:00,
2013-01-03 05:00:00,44.2,44.0,30.15,NNE,24,0.0,2.0,99,0.00,CLR,,0.00,WeatherDisplay:10.37,2013-01-03 10:00:00,
2013-01-03 05:05:00,44.2,44.0,30.15,North,11,0.0,4.0,99,0.00,CLR,,0.00,WeatherDisplay:10.37,2013-01-03 10:05:00,
2013-01-03 05:10:00,44.2,44.0,30.15,NNE,23,0.0,3.0,99,0.00,CLR,,0.00,WeatherDisplay:10.37,2013-01-03 10:10:00,
2013-01-03 05:15:00,44.2,44.0,30.15,ENE,62,1.0,3.0,99,0.00,CLR,,0.00,WeatherDisplay:10.37,2013-01-03 10:15:00,
2013-01-03 05:20:00,44.1,43.8,30.15,North,359,1.0,3.0,99,0.00,CLR,,0.00,WeatherDisplay:10.37,2013-01-03 10:20:00,
2013-01-03 05:25:00,44.1,43.8,30.15,NNW,329,0.0,2.0,99,0.00,CLR,,0.00,WeatherDisplay:10.37,2013-01-03 10:25:00,
2013-01-03 05:35:00,44.1,43.8,30.15,NW,323,0.0,3.0,99,0.00,CLR,,0.00,WeatherDisplay:10.37,2013-01-03 10:35:00,
2013-01-03 05:40:00,44.1,43.8,30.15,NW,323,0.0,2.0,99,0.00,CLR,,0.00,WeatherDisplay:10.37,2013-01-03 10:40:00,
2013-01-03 05:50:00,44.1,43.8,30.16,North,1,0.0,3.0,99,0.00,CLR,,0.00,WeatherDisplay:10.37,2013-01-03 10:50:00,
2013-01-03 05:55:00,44.1,43.8,30.16,NNW,345,1.0,2.0,99,0.00,CLR,,0.00,WeatherDisplay:10.37,2013-01-03 10:55:00,
2013-01-03 06:00:00,44.1,43.8,30.16,NNW,334,0.0,2.0,99,0.00,CLR,,0.00,WeatherDisplay:10.37,2013-01-03 11:00:00,
2013-01-03 06:10:00,44.1,43.8,30.15,NW,323,0.0,2.0,99,0.00,CLR,,0.00,WeatherDisplay:10.37,2013-01-03 11:10:00,
2013-01-03 06:15:00,44.1,43.8,30.15,West,273,0.0,2.0,99,0.00,CLR,,0.00,WeatherDisplay:10.37,2013-01-03 11:15:00,
2013-01-03 06:20:00,44.1,43.8,30.16,WNW,289,0.0,2.0,99,0.00,CLR,,0.00,WeatherDisplay:10.37,2013-01-03 11:20:00,
2013-01-03 06:30:00,43.9,43.6,30.15,NNW,329,0.0,2.0,99,0.00,CLR,,0.00,WeatherDisplay:10.37,2013-01-03 11:30:00,
2013-01-03 06:35:00,43.9,43.6,30.16,NW,314,1.0,3.0,99,0.00,CLR,,0.00,WeatherDisplay:10.37,2013-01-03 11:35:00,
2013-01-03 06:40:00,43.9,43.6,30.17,WNW,302,0.0,2.0,99,0.00,CLR,,0.00,WeatherDisplay:10.37,2013-01-03 11:40:00,
2013-01-03 06:45:00,43.9,43.6,30.17,NW,312,0.0,2.0,99,0.00,CLR,,0.00,WeatherDisplay:10.37,2013-01-03 11:45:00,
2013-01-03 06:50:00,43.9,43.6,30.17,NW,311,0.0,2.0,99,0.01,RA,,0.01,WeatherDisplay:10.37,2013-01-03 11:50:00,
2013-01-03 06:55:00,43.7,43.4,30.17,WNW,297,0.0,2.0,99,0.00,RA,,0.01,WeatherDisplay:10.37,2013-01-03 11:55:00,
2013-01-03 07:05:00,43.6,43.3,30.18,WNW,302,0.0,2.0,99,0.00,CLR,,0.01,WeatherDisplay:10.37,2013-01-03 12:05:00,
2013-01-03 07:10:00,43.5,43.3,30.18,NNW,328,0.0,2.0,99,0.00,CLR,,0.01,WeatherDisplay:10.37,2013-01-03 12:10:00,
2013-01-03 07:15:00,43.5,43.3,30.17,NNW,342,1.0,2.0,99,0.00,CLR,,0.01,WeatherDisplay:10.37,2013-01-03 12:15:00,
2013-01-03 07:20:00,43.5,43.3,30.17,NNW,330,1.0,2.0,99,0.00,CLR,,0.01,WeatherDisplay:10.37,2013-01-03 12:20:00,
2013-01-03 07:25:00,43.3,43.1,30.18,NNW,331,0.0,3.0,99,0.00,CLR,,0.01,WeatherDisplay:10.37,2013-01-03 12:25:00,
2013-01-03 07:30:00,43.3,43.1,30.18,NNW,331,0.0,3.0,99,0.01,RA,,0.02,WeatherDisplay:10.37,2013-01-03 12:30:00,
2013-01-03 07:35:00,43.2,42.9,30.18,North,6,0.0,2.0,99,0.00,RA,,0.02,WeatherDisplay:10.37,2013-01-03 12:35:00,
2013-01-03 07:40:00,43.0,42.8,30.18,NW,318,1.0,2.0,99,0.00,,,0.02,WeatherDisplay:10.37,2013-01-03 12:40:00,
2013-01-03 07:45:00,43.0,42.7,30.18,NNW,337,0.0,5.0,99,0.00,CLR,,0.02,WeatherDisplay:10.37,2013-01-03 12:45:00,
2013-01-03 07:50:00,43.0,42.7,30.18,NE,35,1.0,2.0,99,0.00,CLR,,0.02,WeatherDisplay:10.37,2013-01-03 12:50:00,
2013-01-03 08:00:00,42.8,42.5,30.19,NE,56,0.0,4.0,99,0.00,CLR,,0.02,WeatherDisplay:10.37,2013-01-03 13:00:00,
2013-01-03 08:05:00,42.8,42.5,30.19,North,1,0.0,3.0,99,0.00,CLR,,0.02,WeatherDisplay:10.37,2013-01-03 13:05:00,
2013-01-03 08:10:00,42.8,42.5,30.19,North,7,0.0,2.0,99,0.00,CLR,,0.02,WeatherDisplay:10.37,2013-01-03 13:10:00,
2013-01-03 08:15:00,42.8,42.5,30.19,NNW,345,0.0,2.0,99,0.00,CLR,,0.02,WeatherDisplay:10.37,2013-01-03 13:15:00,
2013-01-03 08:20:00,42.8,42.5,30.18,South,183,1.0,5.0,99,0.01,RA,,0.04,WeatherDisplay:10.37,2013-01-03 13:20:00,
2013-01-03 08:25:00,42.8,42.5,30.19,SE,140,1.0,4.0,99,0.00,RA,,0.04,WeatherDisplay:10.37,2013-01-03 13:25:00,
2013-01-03 08:30:00,42.8,42.5,30.19,SE,130,0.0,3.0,99,0.00,,,0.04,WeatherDisplay:10.37,2013-01-03 13:30:00,
2013-01-03 08:35:00,42.8,42.5,30.19,SW,230,0.0,3.0,99,0.00,CLR,,0.04,WeatherDisplay:10.37,2013-01-03 13:35:00,
2013-01-03 08:40:00,42.8,42.5,30.19,NW,312,0.0,2.0,99,0.00,CLR,,0.04,WeatherDisplay:10.37,2013-01-03 13:40:00,
2013-01-03 08:45:00,42.8,42.5,30.19,NNE,16,0.0,2.0,99,0.00,CLR,,0.04,WeatherDisplay:10.37,2013-01-03 13:45:00,
2013-01-03 08:50:00,42.8,42.5,30.19,ESE,114,1.0,4.0,99,0.00,CLR,,0.04,WeatherDisplay:10.37,2013-01-03 13:50:00,
2013-01-03 08:55:00,42.8,42.5,30.19,ESE,102,1.0,5.0,99,0.00,CLR,,0.04,WeatherDisplay:10.37,2013-01-03 13:55:00,
2013-01-03 09:00:00,42.8,42.5,30.19,East,82,0.0,3.0,99,0.00,CLR,,0.04,WeatherDisplay:10.37,2013-01-03 14:00:00,
2013-01-03 09:05:00,42.8,42.5,30.20,NNW,333,0.0,2.0,99,0.01,RA,,0.05,WeatherDisplay:10.37,2013-01-03 14:05:00,
2013-01-03 09:10:00,42.8,42.5,30.20,SSW,199,0.0,2.0,99,0.00,RA,,0.05,WeatherDisplay:10.37,2013-01-03 14:10:00,
2013-01-03 09:15:00,42.8,42.5,30.20,West,265,1.0,5.0,99,0.00,,,0.05,WeatherDisplay:10.37,2013-01-03 14:15:00,
2013-01-03 09:20:00,42.6,42.4,30.20,North,352,0.0,3.0,99,0.00,CLR,,0.05,WeatherDisplay:10.37,2013-01-03 14:20:00,
2013-01-03 09:25:00,42.6,42.4,30.20,NNW,333,0.0,3.0,99,0.00,CLR,,0.05,WeatherDisplay:10.37,2013-01-03 14:25:00,
2013-01-03 09:30:00,42.6,42.4,30.21,NW,325,0.0,3.0,99,0.00,CLR,,0.05,WeatherDisplay:10.37,2013-01-03 14:30:00,
2013-01-03 09:35:00,42.6,42.4,30.20,NNW,343,1.0,2.0,99,0.01,RA,,0.06,WeatherDisplay:10.37,2013-01-03 14:35:00,
2013-01-03 09:40:00,42.6,42.4,30.20,East,92,0.0,4.0,99,0.00,RA,,0.06,WeatherDisplay:10.37,2013-01-03 14:40:00,
2013-01-03 09:45:00,42.6,42.4,30.20,ENE,63,0.0,4.0,99,0.00,CLR,,0.06,WeatherDisplay:10.37,2013-01-03 14:45:00,
2013-01-03 09:50:00,42.6,42.4,30.21,NNW,342,0.0,2.0,99,0.00,CLR,,0.06,WeatherDisplay:10.37,2013-01-03 14:50:00,
2013-01-03 09:55:00,42.6,42.4,30.21,NNW,344,0.0,2.0,99,0.01,RA,,0.07,WeatherDisplay:10.37,2013-01-03 14:55:00,
2013-01-03 10:00:00,42.6,42.4,30.21,NW,314,0.0,2.0,99,0.00,RA,,0.07,WeatherDisplay:10.37,2013-01-03 15:00:00,
2013-01-03 10:05:00,42.6,42.4,30.21,NW,313,0.0,2.0,99,0.00,CLR,,0.07,WeatherDisplay:10.37,2013-01-03 15:05:00,
2013-01-03 10:10:00,42.8,42.5,30.21,NNW,334,0.0,2.0,99,0.00,CLR,,0.07,WeatherDisplay:10.37,2013-01-03 15:10:00,
2013-01-03 10:15:00,42.8,42.6,30.20,North,350,0.0,2.0,99,0.00,CLR,,0.07,WeatherDisplay:10.37,2013-01-03 15:15:00,
2013-01-03 10:20:00,43.0,42.7,30.20,North,6,0.0,2.0,99,0.00,CLR,,0.07,WeatherDisplay:10.37,2013-01-03 15:20:00,
2013-01-03 10:25:00,43.0,42.7,30.19,North,355,0.0,2.0,99,0.00,CLR,,0.07,WeatherDisplay:10.37,2013-01-03 15:25:00,
2013-01-03 10:35:00,43.3,43.1,30.19,North,10,0.0,3.0,99,0.00,CLR,,0.07,WeatherDisplay:10.37,2013-01-03 15:35:00,
2013-01-03 10:40:00,43.5,43.3,30.19,ESE,116,0.0,2.0,99,0.00,CLR,,0.07,WeatherDisplay:10.37,2013-01-03 15:40:00,
2013-01-03 10:45:00,43.5,43.3,30.18,North,9,0.0,2.0,99,0.00,CLR,,0.07,WeatherDisplay:10.37,2013-01-03 15:45:00,
2013-01-03 10:50:00,43.7,43.4,30.18,North,354,0.0,3.0,99,0.01,RA,,0.08,WeatherDisplay:10.37,2013-01-03 15:50:00,
2013-01-03 11:00:00,44.1,43.8,30.18,SSE,162,0.0,2.0,99,0.00,,,0.08,WeatherDisplay:10.37,2013-01-03 16:00:00,
2013-01-03 11:05:00,44.1,43.9,30.18,SSE,151,1.0,3.0,99,0.00,CLR,,0.08,WeatherDisplay:10.37,2013-01-03 16:05:00,
2013-01-03 11:10:00,44.1,43.8,30.18,South,174,0.0,4.0,99,0.00,CLR,,0.08,WeatherDisplay:10.37,2013-01-03 16:10:00,
2013-01-03 11:15:00,44.2,44.0,30.17,South,186,0.0,3.0,99,0.00,CLR,,0.08,WeatherDisplay:10.37,2013-01-03 16:15:00,
2013-01-03 11:20:00,44.2,44.0,30.17,SSE,158,0.0,4.0,99,0.00,CLR,,0.08,WeatherDisplay:10.37,2013-01-03 16:20:00,
2013-01-03 11:25:00,44.4,44.2,30.18,SSE,168,0.0,3.0,99,0.00,CLR,,0.08,WeatherDisplay:10.37,2013-01-03 16:25:00,
2013-01-03 11:30:00,44.4,44.2,30.18,ESE,106,0.0,3.0,99,0.00,CLR,,0.08,WeatherDisplay:10.37,2013-01-03 16:30:00,
2013-01-03 11:40:00,44.6,44.3,30.19,ESE,112,0.0,2.0,99,0.00,RA,,0.09,WeatherDisplay:10.37,2013-01-03 16:40:00,
2013-01-03 11:45:00,44.8,44.5,30.19,North,11,1.0,2.0,99,0.00,,,0.09,WeatherDisplay:10.37,2013-01-03 16:45:00,
2013-01-03 11:55:00,45.0,44.7,30.18,West,280,0.0,2.0,99,0.00,CLR,,0.09,WeatherDisplay:10.37,2013-01-03 16:55:00,
2013-01-03 12:00:00,45.0,44.8,30.18,SW,231,0.0,2.0,99,0.00,CLR,,0.09,WeatherDisplay:10.37,2013-01-03 17:00:00,
2013-01-03 12:05:00,45.1,44.9,30.19,South,188,0.0,2.0,99,0.00,CLR,,0.09,WeatherDisplay:10.37,2013-01-03 17:05:00,
2013-01-03 12:15:00,45.1,44.9,30.18,NNW,339,0.0,2.0,99,0.00,CLR,,0.09,WeatherDisplay:10.37,2013-01-03 17:15:00,
2013-01-03 12:20:00,45.1,44.9,30.18,NW,326,0.0,2.0,99,0.00,CLR,,0.09,WeatherDisplay:10.37,2013-01-03 17:20:00,
2013-01-03 12:25:00,45.3,45.1,30.17,SSW,210,0.0,2.0,99,0.01,RA,,0.11,WeatherDisplay:10.37,2013-01-03 17:25:00,
2013-01-03 12:30:00,45.2,44.9,30.17,South,178,0.0,2.0,99,0.00,RA,,0.11,WeatherDisplay:10.37,2013-01-03 17:30:00,
2013-01-03 12:35:00,45.3,45.1,30.17,South,188,0.0,1.0,99,0.00,CLR,,0.11,WeatherDisplay:10.37,2013-01-03 17:35:00,
2013-01-03 12:40:00,45.3,45.1,30.18,SSW,205,0.0,3.0,99,0.00,CLR,,0.11,WeatherDisplay:10.37,2013-01-03 17:40:00,
2013-01-03 12:45:00,45.3,45.1,30.17,North,356,1.0,3.0,99,0.00,CLR,,0.11,WeatherDisplay:10.37,2013-01-03 17:45:00,
2013-01-03 12:50:00,45.2,44.9,30.17,North,8,0.0,3.0,99,0.00,CLR,,0.11,WeatherDisplay:10.37,2013-01-03 17:50:00,
2013-01-03 12:55:00,45.1,44.9,30.17,North,358,1.0,3.0,99,0.00,CLR,,0.11,WeatherDisplay:10.37,2013-01-03 17:55:00,
2013-01-03 13:00:00,45.1,44.9,30.17,NNW,327,0.0,2.0,99,0.00,CLR,,0.11,WeatherDisplay:10.37,2013-01-03 18:00:00,
2013-01-03 13:05:00,45.2,44.9,30.16,NW,323,0.0,2.0,99,0.00,CLR,,0.11,WeatherDisplay:10.37,2013-01-03 18:05:00,
2013-01-03 13:10:00,45.1,44.9,30.16,NW,325,1.0,3.0,99,0.00,CLR,,0.11,WeatherDisplay:10.37,2013-01-03 18:10:00,
2013-01-03 13:15:00,45.3,45.1,30.17,North,358,1.0,4.0,99,0.00,CLR,,0.11,WeatherDisplay:10.37,2013-01-03 18:15:00,
2013-01-03 13:20:00,45.3,45.1,30.17,NNW,345,0.0,2.0,99,0.00,CLR,,0.11,WeatherDisplay:10.37,2013-01-03 18:20:00,
2013-01-03 13:25:00,45.1,44.9,30.17,NNW,327,0.0,3.0,99,0.00,CLR,,0.11,WeatherDisplay:10.37,2013-01-03 18:25:00,
2013-01-03 13:30:00,45.1,44.9,30.17,NNW,335,1.0,4.0,99,0.00,CLR,,0.11,WeatherDisplay:10.37,2013-01-03 18:30:00,
2013-01-03 13:35:00,45.1,44.9,30.16,NNW,334,0.0,4.0,99,0.00,CLR,,0.11,WeatherDisplay:10.37,2013-01-03 18:35:00,
2013-01-03 13:40:00,45.1,44.9,30.17,North,2,0.0,3.0,99,0.00,CLR,,0.11,WeatherDisplay:10.37,2013-01-03 18:40:00,
2013-01-03 13:45:00,45.1,44.9,30.16,North,9,0.0,3.0,99,0.00,CLR,,0.11,WeatherDisplay:10.37,2013-01-03 18:45:00,
2013-01-03 13:50:00,45.1,44.9,30.15,NNW,335,0.0,2.0,99,0.00,CLR,,0.11,WeatherDisplay:10.37,2013-01-03 18:50:00,
2013-01-03 13:55:00,45.1,44.9,30.16,NW,322,1.0,3.0,99,0.00,CLR,,0.11,WeatherDisplay:10.37,2013-01-03 18:55:00,
2013-01-03 14:00:00,45.1,44.9,30.16,NNW,346,0.0,4.0,99,0.00,CLR,,0.11,WeatherDisplay:10.37,2013-01-03 19:00:00,
2013-01-03 14:05:00,45.1,44.9,30.16,NW,320,1.0,3.0,99,0.00,CLR,,0.11,WeatherDisplay:10.37,2013-01-03 19:05:00,
2013-01-03 14:10:00,45.3,45.0,30.15,West,277,1.0,3.0,99,0.00,CLR,,0.11,WeatherDisplay:10.37,2013-01-03 19:10:00,
2013-01-03 14:15:00,45.3,45.1,30.15,WNW,298,0.0,3.0,99,0.00,CLR,,0.11,WeatherDisplay:10.37,2013-01-03 19:15:00,
2013-01-03 14:55:00,45.3,45.1,30.16,NNW,342,0.0,3.0,99,0.00,CLR,,0.11,WeatherDisplay:10.37,2013-01-03 19:55:00,
2013-01-03 15:00:00,45.3,45.1,30.16,NNW,333,1.0,4.0,99,0.00,CLR,,0.11,WeatherDisplay:10.37,2013-01-03 20:00:00,
2013-01-03 15:05:00,45.1,44.9,30.17,North,358,1.0,4.0,99,0.00,CLR,,0.11,WeatherDisplay:10.37,2013-01-03 20:05:00,
2013-01-03 15:10:00,45.1,44.9,30.18,North,350,2.0,4.0,99,0.00,CLR,,0.11,WeatherDisplay:10.37,2013-01-03 20:10:00,
2013-01-03 15:15:00,45.0,44.7,30.17,NNW,335,1.0,3.0,99,0.00,CLR,,0.11,WeatherDisplay:10.37,2013-01-03 20:15:00,
2013-01-03 15:20:00,45.0,44.7,30.17,North,2,1.0,3.0,99,0.00,CLR,,0.11,WeatherDisplay:10.37,2013-01-03 20:20:00,
2013-01-03 15:25:00,44.8,44.5,30.16,NNE,22,0.0,4.0,99,0.00,CLR,,0.11,WeatherDisplay:10.37,2013-01-03 20:25:00,
2013-01-03 15:30:00,44.8,44.5,30.15,NE,43,0.0,3.0,99,0.00,CLR,,0.11,WeatherDisplay:10.37,2013-01-03 20:30:00,
2013-01-03 15:35:00,44.8,44.5,30.15,NE,51,1.0,3.0,99,0.00,CLR,,0.11,WeatherDisplay:10.37,2013-01-03 20:35:00,
2013-01-03 15:40:00,44.8,44.5,30.16,NNW,341,0.0,3.0,99,0.00,CLR,,0.11,WeatherDisplay:10.37,2013-01-03 20:40:00,
2013-01-03 15:45:00,44.8,44.5,30.16,NNE,32,0.0,3.0,99,0.00,CLR,,0.11,WeatherDisplay:10.37,2013-01-03 20:45:00,
2013-01-03 15:50:00,44.8,44.5,30.17,North,7,0.0,3.0,99,0.00,CLR,,0.11,WeatherDisplay:10.37,2013-01-03 20:50:00,
2013-01-03 15:55:00,44.8,44.5,30.17,North,350,1.0,3.0,99,0.00,CLR,,0.11,WeatherDisplay:10.37,2013-01-03 20:55:00,
2013-01-03 16:00:00,44.8,44.5,30.16,NNW,340,0.0,2.0,99,0.00,CLR,,0.11,WeatherDisplay:10.37,2013-01-03 21:00:00,
2013-01-03 16:05:00,44.8,44.5,30.17,NW,325,0.0,2.0,99,0.00,CLR,,0.11,WeatherDisplay:10.37,2013-01-03 21:05:00,
2013-01-03 16:10:00,44.8,44.5,30.16,NW,323,0.0,3.0,99,0.00,CLR,,0.11,WeatherDisplay:10.37,2013-01-03 21:10:00,
2013-01-03 16:15:00,44.8,44.5,30.17,NNW,341,1.0,4.0,99,0.00,CLR,,0.11,WeatherDisplay:10.37,2013-01-03 21:15:00,
2013-01-03 16:20:00,44.6,44.4,30.17,North,4,1.0,4.0,99,0.00,CLR,,0.11,WeatherDisplay:10.37,2013-01-03 21:20:00,
2013-01-03 16:25:00,44.6,44.3,30.18,North,352,1.0,3.0,99,0.00,CLR,,0.11,WeatherDisplay:10.37,2013-01-03 21:25:00,
2013-01-03 16:30:00,44.6,44.3,30.19,NNW,337,1.0,3.0,99,0.00,CLR,,0.11,WeatherDisplay:10.37,2013-01-03 21:30:00,
2013-01-03 16:35:00,44.4,44.2,30.18,NNW,344,0.0,3.0,99,0.00,CLR,,0.11,WeatherDisplay:10.37,2013-01-03 21:35:00,
2013-01-03 16:40:00,44.4,44.2,30.18,North,351,0.0,2.0,99,0.00,CLR,,0.11,WeatherDisplay:10.37,2013-01-03 21:40:00,
2013-01-03 16:45:00,44.4,44.2,30.18,NNW,344,1.0,3.0,99,0.00,CLR,,0.11,WeatherDisplay:10.37,2013-01-03 21:45:00,
2013-01-03 16:50:00,44.4,44.2,30.18,North,359,0.0,3.0,99,0.00,CLR,,0.11,WeatherDisplay:10.37,2013-01-03 21:50:00,
2013-01-03 16:55:00,44.4,44.2,30.18,North,8,0.0,2.0,99,0.00,CLR,,0.11,WeatherDisplay:10.37,2013-01-03 21:55:00,
2013-01-03 17:00:00,44.4,44.2,30.17,North,351,0.0,3.0,99,0.00,CLR,,0.11,WeatherDisplay:10.37,2013-01-03 22:00:00,
2013-01-03 17:05:00,44.4,44.2,30.19,NW,325,1.0,3.0,99,0.00,CLR,,0.11,WeatherDisplay:10.37,2013-01-03 22:05:00,
2013-01-03 17:10:00,44.2,44.0,30.20,NW,326,1.0,3.0,99,0.00,CLR,,0.11,WeatherDisplay:10.37,2013-01-03 22:10:00,
2013-01-03 17:15:00,44.2,44.0,30.20,NNW,337,0.0,3.0,99,0.00,CLR,,0.11,WeatherDisplay:10.37,2013-01-03 22:15:00,
2013-01-03 17:20:00,44.2,43.9,30.19,NNE,21,0.0,2.0,99,0.00,CLR,,0.11,WeatherDisplay:10.37,2013-01-03 22:20:00,
2013-01-03 17:25:00,44.1,43.8,30.20,North,10,1.0,2.0,99,0.00,CLR,,0.11,WeatherDisplay:10.37,2013-01-03 22:25:00,
2013-01-03 17:30:00,44.1,43.8,30.20,NW,323,0.0,2.0,99,0.00,CLR,,0.11,WeatherDisplay:10.37,2013-01-03 22:30:00,
2013-01-03 17:35:00,44.1,43.8,30.20,NW,323,0.0,2.0,99,0.00,CLR,,0.11,WeatherDisplay:10.37,2013-01-03 22:35:00,
2013-01-03 17:40:00,44.1,43.8,30.20,North,4,1.0,3.0,99,0.00,CLR,,0.11,WeatherDisplay:10.37,2013-01-03 22:40:00,
2013-01-03 17:45:00,43.9,43.6,30.20,North,350,0.0,3.0,99,0.00,CLR,,0.11,WeatherDisplay:10.37,2013-01-03 22:45:00,
2013-01-03 17:50:00,43.9,43.6,30.21,NW,317,0.0,2.0,99,0.00,CLR,,0.11,WeatherDisplay:10.37,2013-01-03 22:50:00,
2013-01-03 17:55:00,43.7,43.4,30.21,NW,323,0.0,2.0,99,0.00,CLR,,0.11,WeatherDisplay:10.37,2013-01-03 22:55:00,
2013-01-03 18:00:00,43.7,43.4,30.21,NNW,345,0.0,2.0,99,0.00,CLR,,0.11,WeatherDisplay:10.37,2013-01-03 23:00:00,
2013-01-03 18:05:00,43.7,43.4,30.22,NNW,345,0.0,2.0,99,0.00,CLR,,0.11,WeatherDisplay:10.37,2013-01-03 23:05:00,
2013-01-03 18:10:00,43.6,43.3,30.22,NNW,333,1.0,2.0,99,0.00,CLR,,0.11,WeatherDisplay:10.37,2013-01-03 23:10:00,
2013-01-03 18:15:00,43.5,43.3,30.23,NNW,333,0.0,3.0,99,0.00,CLR,,0.11,WeatherDisplay:10.37,2013-01-03 23:15:00,
2013-01-03 18:20:00,43.5,43.3,30.21,North,351,0.0,2.0,99,0.00,CLR,,0.11,WeatherDisplay:10.37,2013-01-03 23:20:00,
2013-01-03 18:25:00,43.5,43.3,30.21,NE,39,0.0,2.0,99,0.00,CLR,,0.11,WeatherDisplay:10.37,2013-01-03 23:25:00,
2013-01-03 18:30:00,43.5,43.3,30.22,North,1,0.0,2.0,99,0.00,CLR,,0.11,WeatherDisplay:10.37,2013-01-03 23:30:00,
2013-01-03 18:35:00,43.5,43.3,30.22,NW,326,0.0,2.0,99,0.00,CLR,,0.11,WeatherDisplay:10.37,2013-01-03 23:35:00,
2013-01-03 18:40:00,43.5,43.3,30.23,NW,326,1.0,2.0,99,0.00,CLR,,0.11,WeatherDisplay:10.37,2013-01-03 23:40:00,
2013-01-03 18:45:00,43.5,43.3,30.22,NNE,13,0.0,2.0,99,0.00,CLR,,0.11,WeatherDisplay:10.37,2013-01-03 23:45:00,
2013-01-03 18:50:00,43.5,43.3,30.22,NE,50,0.0,2.0,99,0.00,CLR,,0.11,WeatherDisplay:10.37,2013-01-03 23:50:00,
2013-01-03 18:55:00,43.4,43.1,30.24,NNE,18,0.0,2.0,99,0.00,CLR,,0.11,WeatherDisplay:10.37,2013-01-03 23:55:00,
2013-01-03 19:05:00,43.3,43.1,30.24,North,350,0.0,3.0,99,0.00,CLR,,0.11,WeatherDisplay:10.37,2013-01-04 00:05:00,
2013-01-03 19:10:00,43.3,43.1,30.23,NW,326,1.0,2.0,99,0.00,CLR,,0.11,WeatherDisplay:10.37,2013-01-04 00:10:00,
2013-01-03 19:15:00,43.3,43.1,30.24,NNW,332,1.0,3.0,99,0.00,CLR,,0.11,WeatherDisplay:10.37,2013-01-04 00:15:00,
2013-01-03 19:20:00,43.3,43.1,30.25,NNW,335,0.0,3.0,99,0.00,CLR,,0.11,WeatherDisplay:10.37,2013-01-04 00:20:00,
2013-01-03 19:25:00,43.3,43.1,30.25,NW,326,0.0,3.0,99,0.00,CLR,,0.11,WeatherDisplay:10.37,2013-01-04 00:25:00,
2013-01-03 19:30:00,43.3,43.1,30.24,NNW,335,0.0,4.0,99,0.00,CLR,,0.11,WeatherDisplay:10.37,2013-01-04 00:30:00,
2013-01-03 19:35:00,43.3,43.1,30.24,NNW,336,0.0,3.0,99,0.00,CLR,,0.11,WeatherDisplay:10.37,2013-01-04 00:35:00,
2013-01-03 19:40:00,43.3,43.1,30.25,NNW,330,1.0,2.0,99,0.00,CLR,,0.11,WeatherDisplay:10.37,2013-01-04 00:40:00,
2013-01-03 19:45:00,43.2,42.9,30.24,NNW,337,1.0,3.0,99,0.00,CLR,,0.11,WeatherDisplay:10.37,2013-01-04 00:45:00,
2013-01-03 19:50:00,43.2,42.9,30.24,NNW,332,1.0,2.0,99,0.00,CLR,,0.11,WeatherDisplay:10.37,2013-01-04 00:50:00,
2013-01-03 19:55:00,43.2,42.9,30.25,NW,323,0.0,3.0,99,0.00,CLR,,0.11,WeatherDisplay:10.37,2013-01-04 00:55:00,
2013-01-03 20:00:00,43.2,42.9,30.24,NNW,334,1.0,3.0,99,0.00,CLR,,0.11,WeatherDisplay:10.37,2013-01-04 01:00:00,
2013-01-03 20:05:00,43.2,42.9,30.24,North,358,1.0,2.0,99,0.00,CLR,,0.11,WeatherDisplay:10.37,2013-01-04 01:05:00,
2013-01-03 20:10:00,43.2,42.9,30.24,North,359,1.0,2.0,99,0.00,CLR,,0.11,WeatherDisplay:10.37,2013-01-04 01:10:00,
2013-01-03 20:15:00,43.0,42.7,30.25,NNW,345,0.0,2.0,99,0.00,CLR,,0.11,WeatherDisplay:10.37,2013-01-04 01:15:00,
2013-01-03 20:20:00,43.0,42.7,30.25,North,352,1.0,4.0,99,0.00,CLR,,0.11,WeatherDisplay:10.37,2013-01-04 01:20:00,
2013-01-03 20:25:00,43.0,42.7,30.25,North,10,0.0,3.0,99,0.00,CLR,,0.11,WeatherDisplay:10.37,2013-01-04 01:25:00,
2013-01-03 20:30:00,43.0,42.7,30.26,North,5,0.0,2.0,99,0.00,CLR,,0.11,WeatherDisplay:10.37,2013-01-04 01:30:00,
2013-01-03 20:35:00,43.0,42.7,30.25,North,350,0.0,2.0,99,0.00,CLR,,0.11,WeatherDisplay:10.37,2013-01-04 01:35:00,
2013-01-03 20:40:00,42.9,42.6,30.26,NNW,339,0.0,2.0,99,0.00,CLR,,0.11,WeatherDisplay:10.37,2013-01-04 01:40:00,
2013-01-03 20:45:00,42.8,42.5,30.26,NNW,331,0.0,3.0,99,0.00,CLR,,0.11,WeatherDisplay:10.37,2013-01-04 01:45:00,
2013-01-03 20:50:00,42.7,42.5,30.26,NW,324,0.0,2.0,99,0.00,CLR,,0.11,WeatherDisplay:10.37,2013-01-04 01:50:00,
2013-01-03 20:55:00,42.6,42.4,30.26,NW,323,1.0,2.0,99,0.00,CLR,,0.11,WeatherDisplay:10.37,2013-01-04 01:55:00,
2013-01-03 21:00:00,42.4,42.2,30.26,NNW,331,0.0,2.0,99,0.00,CLR,,0.11,WeatherDisplay:10.37,2013-01-04 02:00:00,
2013-01-03 21:05:00,42.3,42.0,30.26,NW,326,0.0,2.0,99,0.00,CLR,,0.11,WeatherDisplay:10.37,2013-01-04 02:05:00,
2013-01-03 21:10:00,42.3,42.0,30.26,NW,323,0.0,2.0,99,0.00,CLR,,0.11,WeatherDisplay:10.37,2013-01-04 02:10:00,
2013-01-03 21:15:00,42.1,41.8,30.26,NW,323,1.0,2.0,99,0.00,CLR,,0.11,WeatherDisplay:10.37,2013-01-04 02:15:00,
2013-01-03 21:20:00,41.9,41.6,30.26,NW,323,0.0,2.0,99,0.00,CLR,,0.11,WeatherDisplay:10.37,2013-01-04 02:20:00,
2013-01-03 21:25:00,41.9,41.6,30.27,NW,323,0.0,0.0,99,0.00,CLR,,0.11,WeatherDisplay:10.37,2013-01-04 02:25:00,
2013-01-03 21:30:00,41.6,41.3,30.27,NW,323,0.0,0.0,99,0.00,CLR,,0.11,WeatherDisplay:10.37,2013-01-04 02:30:00,
2013-01-03 21:35:00,41.5,41.3,30.27,NW,323,0.0,0.0,99,0.00,CLR,,0.11,WeatherDisplay:10.37,2013-01-04 02:35:00,
2013-01-03 21:40:00,41.3,41.0,30.27,NW,323,0.0,0.0,99,0.00,CLR,,0.11,WeatherDisplay:10.37,2013-01-04 02:40:00,
2013-01-03 21:45:00,41.2,40.9,30.27,NW,323,0.0,0.0,99,0.00,CLR,,0.11,WeatherDisplay:10.37,2013-01-04 02:45:00,
2013-01-03 21:50:00,41.0,40.7,30.27,NW,323,0.0,0.0,99,0.00,CLR,,0.11,WeatherDisplay:10.37,2013-01-04 02:50:00,
2013-01-03 21:55:00,40.6,40.4,30.27,NW,323,0.0,0.0,99,0.00,CLR,,0.11,WeatherDisplay:10.37,2013-01-04 02:55:00,
2013-01-03 22:00:00,40.4,40.1,30.27,NW,323,0.0,0.0,99,0.00,CLR,,0.11,WeatherDisplay:10.37,2013-01-04 03:00:00,
2013-01-03 22:05:00,40.1,39.8,30.27,NW,323,0.0,0.0,99,0.00,CLR,,0.11,WeatherDisplay:10.37,2013-01-04 03:05:00,
2013-01-03 22:10:00,39.9,39.7,30.28,NW,323,0.0,0.0,99,0.00,CLR,,0.11,WeatherDisplay:10.37,2013-01-04 03:10:00,
2013-01-03 22:15:00,39.6,39.3,30.27,NW,323,0.0,0.0,99,0.00,CLR,,0.11,WeatherDisplay:10.37,2013-01-04 03:15:00,
2013-01-03 22:20:00,39.3,39.1,30.27,NW,323,0.0,0.0,99,0.00,CLR,,0.11,WeatherDisplay:10.37,2013-01-04 03:20:00,
2013-01-03 22:25:00,39.2,38.9,30.27,NW,323,0.0,0.0,99,0.00,CLR,,0.11,WeatherDisplay:10.37,2013-01-04 03:25:00,
2013-01-03 22:30:00,39.0,38.8,30.28,NW,323,0.0,0.0,99,0.00,CLR,,0.11,WeatherDisplay:10.37,2013-01-04 03:30:00,
2013-01-03 22:35:00,38.8,38.6,30.28,NW,323,0.0,0.0,99,0.00,CLR,,0.11,WeatherDisplay:10.37,2013-01-04 03:35:00,
2013-01-03 22:40:00,38.6,38.4,30.27,NW,323,0.0,0.0,99,0.00,CLR,,0.11,WeatherDisplay:10.37,2013-01-04 03:40:00,
2013-01-03 22:45:00,38.3,38.0,30.28,NW,323,0.0,0.0,99,0.00,CLR,,0.11,WeatherDisplay:10.37,2013-01-04 03:45:00,
2013-01-03 22:55:00,37.9,37.7,30.28,NW,323,0.0,0.0,99,0.00,CLR,,0.11,WeatherDisplay:10.37,2013-01-04 03:55:00,
2013-01-03 23:00:00,37.8,37.5,30.28,NW,323,0.0,0.0,99,0.00,CLR,,0.11,WeatherDisplay:10.37,2013-01-04 04:00:00,
2013-01-03 23:05:00,37.8,37.5,30.28,NW,323,0.0,0.0,99,0.00,CLR,,0.11,WeatherDisplay:10.37,2013-01-04 04:05:00,
2013-01-03 23:10:00,37.4,37.1,30.28,NW,323,0.0,0.0,99,0.00,CLR,,0.11,WeatherDisplay:10.37,2013-01-04 04:10:00,
2013-01-03 23:15:00,37.2,37.0,30.28,NW,323,0.0,0.0,99,0.00,CLR,,0.11,WeatherDisplay:10.37,2013-01-04 04:15:00,
2013-01-03 23:20:00,37.2,37.0,30.28,NW,323,0.0,0.0,99,0.00,CLR,,0.11,WeatherDisplay:10.37,2013-01-04 04:20:00,
2013-01-03 23:25:00,37.2,37.0,30.28,NW,323,0.0,0.0,99,0.00,CLR,,0.11,WeatherDisplay:10.37,2013-01-04 04:25:00,
2013-01-03 23:30:00,36.9,36.6,30.28,NW,323,0.0,0.0,99,0.00,CLR,,0.11,WeatherDisplay:10.37,2013-01-04 04:30:00,
2013-01-03 23:35:00,36.7,36.4,30.28,NW,323,0.0,0.0,99,0.00,CLR,,0.11,WeatherDisplay:10.37,2013-01-04 04:35:00,
2013-01-03 23:40:00,36.7,36.4,30.28,NW,323,0.0,0.0,99,0.00,CLR,,0.11,WeatherDisplay:10.37,2013-01-04 04:40:00,
2013-01-03 23:45:00,36.5,36.2,30.28,NW,323,0.0,0.0,99,0.00,CLR,,0.11,WeatherDisplay:10.37,2013-01-04 04:45:00,
2013-01-03 23:50:00,36.4,36.2,30.28,NW,323,0.0,0.0,99,0.00,CLR,,0.11,WeatherDisplay:10.37,2013-01-04 04:50:00,
2013-01-03 23:55:00,36.3,36.0,30.27,NW,323,0.0,0.0,99,0.00,CLR,,0.11,WeatherDisplay:10.37,2013-01-04 04:55:00,